sensor_id;sensor_type;location;lat;lon;timestamp;temperature;humidity
2409;DHT22;8463;48.094;7.970;2023-07-31T00:01:46;16.40;1.00
2409;DHT22;8463;48.094;7.970;2023-07-31T00:04:14;16.40;1.00
2409;DHT22;8463;48.094;7.970;2023-07-31T00:06:39;16.40;1.00
2409;DHT22;8463;48.094;7.970;2023-07-31T00:09:05;16.30;1.00
2409;DHT22;8463;48.094;7.970;2023-07-31T00:11:30;16.30;1.00
2409;DHT22;8463;48.094;7.970;2023-07-31T00:13:56;16.30;1.00
2409;DHT22;8463;48.094;7.970;2023-07-31T00:16:24;16.20;1.00
2409;DHT22;8463;48.094;7.970;2023-07-31T00:18:50;16.20;1.00
2409;DHT22;8463;48.094;7.970;2023-07-31T00:21:15;16.20;1.00
2409;DHT22;8463;48.094;7.970;2023-07-31T00:23:43;16.20;1.00
2409;DHT22;8463;48.094;7.970;2023-07-31T00:26:11;16.30;1.00
2409;DHT22;8463;48.094;7.970;2023-07-31T00:28:37;16.30;1.00
2409;DHT22;8463;48.094;7.970;2023-07-31T00:31:02;16.30;1.00
2409;DHT22;8463;48.094;7.970;2023-07-31T00:33:31;16.20;1.00
2409;DHT22;8463;48.094;7.970;2023-07-31T00:35:57;16.30;1.00
2409;DHT22;8463;48.094;7.970;2023-07-31T00:38:25;16.30;1.00
2409;DHT22;8463;48.094;7.970;2023-07-31T00:40:50;16.30;1.00
2409;DHT22;8463;48.094;7.970;2023-07-31T00:43:16;16.20;1.00
2409;DHT22;8463;48.094;7.970;2023-07-31T00:45:42;16.20;1.00
2409;DHT22;8463;48.094;7.970;2023-07-31T00:48:07;16.10;1.00
2409;DHT22;8463;48.094;7.970;2023-07-31T00:50:35;16.10;1.00
2409;DHT22;8463;48.094;7.970;2023-07-31T00:53:01;16.10;1.00
2409;DHT22;8463;48.094;7.970;2023-07-31T00:55:27;16.00;1.00
2409;DHT22;8463;48.094;7.970;2023-07-31T00:57:53;16.00;1.00
2409;DHT22;8463;48.094;7.970;2023-07-31T01:00:21;15.90;1.00
2409;DHT22;8463;48.094;7.970;2023-07-31T01:02:50;16.00;1.00
2409;DHT22;8463;48.094;7.970;2023-07-31T01:05:19;16.00;1.00
2409;DHT22;8463;48.094;7.970;2023-07-31T01:07:55;16.00;1.00
2409;DHT22;8463;48.094;7.970;2023-07-31T01:10:24;15.90;1.00
2409;DHT22;8463;48.094;7.970;2023-07-31T01:12:53;15.80;1.00
2409;DHT22;8463;48.094;7.970;2023-07-31T01:15:20;15.70;1.00
2409;DHT22;8463;48.094;7.970;2023-07-31T01:17:46;15.70;1.00
2409;DHT22;8463;48.094;7.970;2023-07-31T01:20:24;15.70;1.00
2409;DHT22;8463;48.094;7.970;2023-07-31T01:28:43;15.80;1.00
2409;DHT22;8463;48.094;7.970;2023-07-31T01:31:13;15.80;1.00
2409;DHT22;8463;48.094;7.970;2023-07-31T01:33:41;15.80;1.00
2409;DHT22;8463;48.094;7.970;2023-07-31T01:36:09;15.80;1.00
2409;DHT22;8463;48.094;7.970;2023-07-31T01:38:35;15.70;1.00
2409;DHT22;8463;48.094;7.970;2023-07-31T01:41:01;15.70;1.00
2409;DHT22;8463;48.094;7.970;2023-07-31T01:43:26;15.60;1.00
2409;DHT22;8463;48.094;7.970;2023-07-31T01:45:56;15.70;1.00
2409;DHT22;8463;48.094;7.970;2023-07-31T01:48:22;15.60;1.00
2409;DHT22;8463;48.094;7.970;2023-07-31T01:50:47;15.60;1.00
2409;DHT22;8463;48.094;7.970;2023-07-31T01:53:13;15.50;1.00
2409;DHT22;8463;48.094;7.970;2023-07-31T01:55:39;15.50;1.00
2409;DHT22;8463;48.094;7.970;2023-07-31T01:58:05;15.40;1.00
2409;DHT22;8463;48.094;7.970;2023-07-31T02:00:31;15.30;1.00
2409;DHT22;8463;48.094;7.970;2023-07-31T02:02:58;15.30;1.00
2409;DHT22;8463;48.094;7.970;2023-07-31T02:05:24;15.30;1.00
2409;DHT22;8463;48.094;7.970;2023-07-31T02:07:50;15.30;1.00
2409;DHT22;8463;48.094;7.970;2023-07-31T02:10:15;15.20;1.00
2409;DHT22;8463;48.094;7.970;2023-07-31T02:12:41;15.20;1.00
2409;DHT22;8463;48.094;7.970;2023-07-31T02:15:07;15.20;1.00
2409;DHT22;8463;48.094;7.970;2023-07-31T02:17:35;15.20;1.00
2409;DHT22;8463;48.094;7.970;2023-07-31T02:20:01;15.20;1.00
2409;DHT22;8463;48.094;7.970;2023-07-31T02:22:26;15.20;1.00
2409;DHT22;8463;48.094;7.970;2023-07-31T02:24:52;15.20;1.00
2409;DHT22;8463;48.094;7.970;2023-07-31T02:27:18;15.20;1.00
2409;DHT22;8463;48.094;7.970;2023-07-31T02:29:43;15.20;1.00
2409;DHT22;8463;48.094;7.970;2023-07-31T02:32:09;15.20;1.00
2409;DHT22;8463;48.094;7.970;2023-07-31T02:34:35;15.20;1.00
2409;DHT22;8463;48.094;7.970;2023-07-31T02:37:00;15.20;1.00
2409;DHT22;8463;48.094;7.970;2023-07-31T02:39:26;15.10;1.00
2409;DHT22;8463;48.094;7.970;2023-07-31T02:41:51;15.20;1.00
2409;DHT22;8463;48.094;7.970;2023-07-31T02:44:17;15.10;1.00
2409;DHT22;8463;48.094;7.970;2023-07-31T02:46:46;15.10;1.00
2409;DHT22;8463;48.094;7.970;2023-07-31T02:49:11;15.00;1.00
2409;DHT22;8463;48.094;7.970;2023-07-31T02:51:37;15.00;1.00
2409;DHT22;8463;48.094;7.970;2023-07-31T02:54:03;15.00;1.00
2409;DHT22;8463;48.094;7.970;2023-07-31T02:56:28;14.90;1.00
2409;DHT22;8463;48.094;7.970;2023-07-31T02:58:54;14.90;1.00
2409;DHT22;8463;48.094;7.970;2023-07-31T03:01:22;14.90;1.00
2409;DHT22;8463;48.094;7.970;2023-07-31T03:03:48;14.90;1.00
2409;DHT22;8463;48.094;7.970;2023-07-31T03:06:14;15.00;1.00
2409;DHT22;8463;48.094;7.970;2023-07-31T03:08:39;15.00;1.00
2409;DHT22;8463;48.094;7.970;2023-07-31T03:11:05;14.90;1.00
2409;DHT22;8463;48.094;7.970;2023-07-31T03:13:30;14.90;1.00
2409;DHT22;8463;48.094;7.970;2023-07-31T03:15:58;14.90;1.00
2409;DHT22;8463;48.094;7.970;2023-07-31T03:18:24;15.00;1.00
2409;DHT22;8463;48.094;7.970;2023-07-31T03:20:49;14.90;1.00
2409;DHT22;8463;48.094;7.970;2023-07-31T03:23:15;14.90;1.00
2409;DHT22;8463;48.094;7.970;2023-07-31T03:25:55;14.80;1.00
2409;DHT22;8463;48.094;7.970;2023-07-31T03:28:21;14.70;1.00
2409;DHT22;8463;48.094;7.970;2023-07-31T03:30:47;14.70;1.00
2409;DHT22;8463;48.094;7.970;2023-07-31T03:33:12;14.80;1.00
2409;DHT22;8463;48.094;7.970;2023-07-31T03:35:38;14.80;1.00
2409;DHT22;8463;48.094;7.970;2023-07-31T03:38:04;14.80;1.00
2409;DHT22;8463;48.094;7.970;2023-07-31T03:40:30;14.80;1.00
2409;DHT22;8463;48.094;7.970;2023-07-31T03:42:58;14.70;1.00
2409;DHT22;8463;48.094;7.970;2023-07-31T03:45:23;14.60;1.00
2409;DHT22;8463;48.094;7.970;2023-07-31T03:47:49;14.70;1.00
2409;DHT22;8463;48.094;7.970;2023-07-31T03:50:14;14.70;1.00
2409;DHT22;8463;48.094;7.970;2023-07-31T03:52:41;14.70;1.00
2409;DHT22;8463;48.094;7.970;2023-07-31T03:55:07;14.80;1.00
2409;DHT22;8463;48.094;7.970;2023-07-31T03:57:32;14.80;1.00
2409;DHT22;8463;48.094;7.970;2023-07-31T03:59:58;14.80;1.00
2409;DHT22;8463;48.094;7.970;2023-07-31T04:02:26;14.80;1.00
2409;DHT22;8463;48.094;7.970;2023-07-31T04:04:52;14.70;1.00
2409;DHT22;8463;48.094;7.970;2023-07-31T04:07:17;14.80;1.00
2409;DHT22;8463;48.094;7.970;2023-07-31T04:09:43;14.80;1.00
2409;DHT22;8463;48.094;7.970;2023-07-31T04:12:08;14.80;1.00
2409;DHT22;8463;48.094;7.970;2023-07-31T04:14:34;14.80;1.00
2409;DHT22;8463;48.094;7.970;2023-07-31T04:17:00;14.70;1.00
2409;DHT22;8463;48.094;7.970;2023-07-31T04:19:25;14.70;1.00
2409;DHT22;8463;48.094;7.970;2023-07-31T04:21:54;14.70;1.00
2409;DHT22;8463;48.094;7.970;2023-07-31T04:24:19;14.70;1.00
2409;DHT22;8463;48.094;7.970;2023-07-31T04:26:50;14.70;1.00
2409;DHT22;8463;48.094;7.970;2023-07-31T04:29:22;14.80;1.00
2409;DHT22;8463;48.094;7.970;2023-07-31T04:31:48;14.80;1.00
2409;DHT22;8463;48.094;7.970;2023-07-31T04:34:14;14.70;1.00
2409;DHT22;8463;48.094;7.970;2023-07-31T04:36:39;14.60;1.00
2409;DHT22;8463;48.094;7.970;2023-07-31T04:39:05;14.60;1.00
2409;DHT22;8463;48.094;7.970;2023-07-31T04:41:31;14.60;1.00
2409;DHT22;8463;48.094;7.970;2023-07-31T04:43:56;14.70;1.00
2409;DHT22;8463;48.094;7.970;2023-07-31T04:46:24;14.70;1.00
2409;DHT22;8463;48.094;7.970;2023-07-31T04:48:50;14.70;1.00
2409;DHT22;8463;48.094;7.970;2023-07-31T04:51:15;14.70;1.00
2409;DHT22;8463;48.094;7.970;2023-07-31T04:53:41;14.70;1.00
2409;DHT22;8463;48.094;7.970;2023-07-31T04:56:10;14.80;1.00
2409;DHT22;8463;48.094;7.970;2023-07-31T04:58:38;14.70;1.00
2409;DHT22;8463;48.094;7.970;2023-07-31T05:01:04;14.80;1.00
2409;DHT22;8463;48.094;7.970;2023-07-31T05:03:29;14.70;1.00
2409;DHT22;8463;48.094;7.970;2023-07-31T05:06:02;14.80;1.00
2409;DHT22;8463;48.094;7.970;2023-07-31T05:08:28;14.80;1.00
2409;DHT22;8463;48.094;7.970;2023-07-31T05:10:53;14.80;1.00
2409;DHT22;8463;48.094;7.970;2023-07-31T05:13:19;14.80;1.00
2409;DHT22;8463;48.094;7.970;2023-07-31T05:15:45;14.80;1.00
2409;DHT22;8463;48.094;7.970;2023-07-31T05:18:11;14.80;1.00
2409;DHT22;8463;48.094;7.970;2023-07-31T05:20:36;14.90;1.00
2409;DHT22;8463;48.094;7.970;2023-07-31T05:23:02;14.80;1.00
2409;DHT22;8463;48.094;7.970;2023-07-31T05:25:30;14.80;1.00
2409;DHT22;8463;48.094;7.970;2023-07-31T05:27:56;14.90;1.00
2409;DHT22;8463;48.094;7.970;2023-07-31T05:30:21;14.90;1.00
2409;DHT22;8463;48.094;7.970;2023-07-31T05:32:47;14.90;1.00
2409;DHT22;8463;48.094;7.970;2023-07-31T05:35:12;14.90;1.00
2409;DHT22;8463;48.094;7.970;2023-07-31T05:37:42;14.90;1.00
2409;DHT22;8463;48.094;7.970;2023-07-31T05:40:11;14.90;1.00
2409;DHT22;8463;48.094;7.970;2023-07-31T05:42:36;14.90;1.00
2409;DHT22;8463;48.094;7.970;2023-07-31T05:45:05;14.90;1.00
2409;DHT22;8463;48.094;7.970;2023-07-31T05:47:30;15.00;1.00
2409;DHT22;8463;48.094;7.970;2023-07-31T05:49:56;15.20;1.00
2409;DHT22;8463;48.094;7.970;2023-07-31T05:52:21;15.70;1.00
2409;DHT22;8463;48.094;7.970;2023-07-31T05:54:47;15.90;1.00
2409;DHT22;8463;48.094;7.970;2023-07-31T05:57:13;16.20;1.00
2409;DHT22;8463;48.094;7.970;2023-07-31T05:59:39;16.50;1.00
2409;DHT22;8463;48.094;7.970;2023-07-31T06:02:05;16.70;1.00
2409;DHT22;8463;48.094;7.970;2023-07-31T06:04:31;16.80;1.00
2409;DHT22;8463;48.094;7.970;2023-07-31T06:06:57;16.90;1.00
2409;DHT22;8463;48.094;7.970;2023-07-31T06:09:22;17.10;1.00
2409;DHT22;8463;48.094;7.970;2023-07-31T06:11:48;17.30;1.00
2409;DHT22;8463;48.094;7.970;2023-07-31T06:14:14;17.50;1.00
2409;DHT22;8463;48.094;7.970;2023-07-31T06:16:40;17.70;1.00
2409;DHT22;8463;48.094;7.970;2023-07-31T06:19:06;17.70;1.00
2409;DHT22;8463;48.094;7.970;2023-07-31T06:21:32;17.80;1.00
2409;DHT22;8463;48.094;7.970;2023-07-31T06:23:58;17.80;1.00
2409;DHT22;8463;48.094;7.970;2023-07-31T06:26:24;17.70;1.00
2409;DHT22;8463;48.094;7.970;2023-07-31T06:28:49;17.60;1.00
2409;DHT22;8463;48.094;7.970;2023-07-31T06:31:15;17.70;1.00
2409;DHT22;8463;48.094;7.970;2023-07-31T06:33:40;17.80;1.00
2409;DHT22;8463;48.094;7.970;2023-07-31T06:36:06;17.80;1.00
2409;DHT22;8463;48.094;7.970;2023-07-31T06:38:34;17.80;1.00
2409;DHT22;8463;48.094;7.970;2023-07-31T06:41:00;17.90;1.00
2409;DHT22;8463;48.094;7.970;2023-07-31T06:43:25;17.90;1.00
2409;DHT22;8463;48.094;7.970;2023-07-31T06:45:51;18.00;1.00
2409;DHT22;8463;48.094;7.970;2023-07-31T06:48:18;18.20;1.00
2409;DHT22;8463;48.094;7.970;2023-07-31T06:50:43;18.40;1.00
2409;DHT22;8463;48.094;7.970;2023-07-31T06:53:09;18.50;1.00
2409;DHT22;8463;48.094;7.970;2023-07-31T06:55:37;18.70;1.00
2409;DHT22;8463;48.094;7.970;2023-07-31T06:58:02;18.80;1.00
2409;DHT22;8463;48.094;7.970;2023-07-31T07:00:35;18.80;1.00
2409;DHT22;8463;48.094;7.970;2023-07-31T07:03:01;18.60;1.00
2409;DHT22;8463;48.094;7.970;2023-07-31T07:05:26;18.40;1.00
2409;DHT22;8463;48.094;7.970;2023-07-31T07:07:52;18.30;1.00
2409;DHT22;8463;48.094;7.970;2023-07-31T07:10:18;18.20;1.00
2409;DHT22;8463;48.094;7.970;2023-07-31T07:12:44;18.20;1.00
2409;DHT22;8463;48.094;7.970;2023-07-31T07:15:10;18.20;1.00
2409;DHT22;8463;48.094;7.970;2023-07-31T07:17:35;18.10;1.00
2409;DHT22;8463;48.094;7.970;2023-07-31T07:20:05;18.10;1.00
2409;DHT22;8463;48.094;7.970;2023-07-31T07:22:33;18.20;1.00
2409;DHT22;8463;48.094;7.970;2023-07-31T07:24:59;18.40;1.00
2409;DHT22;8463;48.094;7.970;2023-07-31T07:27:24;18.60;1.00
2409;DHT22;8463;48.094;7.970;2023-07-31T07:29:50;18.80;1.00
2409;DHT22;8463;48.094;7.970;2023-07-31T07:32:18;18.90;1.00
2409;DHT22;8463;48.094;7.970;2023-07-31T07:34:44;19.10;1.00
2409;DHT22;8463;48.094;7.970;2023-07-31T07:37:10;19.20;1.00
2409;DHT22;8463;48.094;7.970;2023-07-31T07:39:35;19.50;1.00
2409;DHT22;8463;48.094;7.970;2023-07-31T07:42:03;19.60;1.00
2409;DHT22;8463;48.094;7.970;2023-07-31T07:44:35;19.60;1.00
2409;DHT22;8463;48.094;7.970;2023-07-31T07:47:00;19.50;1.00
2409;DHT22;8463;48.094;7.970;2023-07-31T07:49:26;19.80;1.00
2409;DHT22;8463;48.094;7.970;2023-07-31T07:51:52;19.90;1.00
2409;DHT22;8463;48.094;7.970;2023-07-31T07:54:20;20.30;1.00
2409;DHT22;8463;48.094;7.970;2023-07-31T07:56:47;20.40;1.00
2409;DHT22;8463;48.094;7.970;2023-07-31T07:59:13;20.20;1.00
2409;DHT22;8463;48.094;7.970;2023-07-31T08:01:47;19.80;1.00
2409;DHT22;8463;48.094;7.970;2023-07-31T08:04:13;19.70;1.00
2409;DHT22;8463;48.094;7.970;2023-07-31T08:06:39;19.70;1.00
2409;DHT22;8463;48.094;7.970;2023-07-31T08:09:05;19.60;1.00
2409;DHT22;8463;48.094;7.970;2023-07-31T08:11:35;19.50;1.00
2409;DHT22;8463;48.094;7.970;2023-07-31T08:14:01;19.60;1.00
2409;DHT22;8463;48.094;7.970;2023-07-31T08:16:29;19.90;1.00
2409;DHT22;8463;48.094;7.970;2023-07-31T08:18:55;20.00;1.00
2409;DHT22;8463;48.094;7.970;2023-07-31T08:21:32;20.00;1.00
2409;DHT22;8463;48.094;7.970;2023-07-31T08:23:57;19.90;1.00
2409;DHT22;8463;48.094;7.970;2023-07-31T08:26:23;20.20;1.00
2409;DHT22;8463;48.094;7.970;2023-07-31T08:28:49;20.40;1.00
2409;DHT22;8463;48.094;7.970;2023-07-31T08:31:15;20.60;1.00
2409;DHT22;8463;48.094;7.970;2023-07-31T08:33:41;20.60;1.00
2409;DHT22;8463;48.094;7.970;2023-07-31T08:36:07;20.50;1.00
2409;DHT22;8463;48.094;7.970;2023-07-31T08:38:33;20.70;1.00
2409;DHT22;8463;48.094;7.970;2023-07-31T08:41:00;20.70;1.00
2409;DHT22;8463;48.094;7.970;2023-07-31T08:43:26;20.70;1.00
2409;DHT22;8463;48.094;7.970;2023-07-31T08:45:52;20.90;1.00
2409;DHT22;8463;48.094;7.970;2023-07-31T08:48:20;20.60;1.00
2409;DHT22;8463;48.094;7.970;2023-07-31T08:50:51;20.60;1.00
2409;DHT22;8463;48.094;7.970;2023-07-31T08:53:18;20.80;1.00
2409;DHT22;8463;48.094;7.970;2023-07-31T08:55:44;20.90;1.00
2409;DHT22;8463;48.094;7.970;2023-07-31T08:58:13;20.80;1.00
2409;DHT22;8463;48.094;7.970;2023-07-31T09:00:40;21.10;1.00
2409;DHT22;8463;48.094;7.970;2023-07-31T09:03:17;21.10;1.00
2409;DHT22;8463;48.094;7.970;2023-07-31T09:05:44;20.80;1.00
2409;DHT22;8463;48.094;7.970;2023-07-31T09:08:13;21.20;1.00
2409;DHT22;8463;48.094;7.970;2023-07-31T09:10:44;21.40;1.00
2409;DHT22;8463;48.094;7.970;2023-07-31T09:13:14;21.60;1.00
2409;DHT22;8463;48.094;7.970;2023-07-31T09:15:42;21.60;1.00
2409;DHT22;8463;48.094;7.970;2023-07-31T09:18:11;21.70;1.00
2409;DHT22;8463;48.094;7.970;2023-07-31T09:20:37;21.60;1.00
2409;DHT22;8463;48.094;7.970;2023-07-31T09:23:14;21.70;1.00
2409;DHT22;8463;48.094;7.970;2023-07-31T09:25:46;21.80;1.00
2409;DHT22;8463;48.094;7.970;2023-07-31T09:28:12;22.10;1.00
2409;DHT22;8463;48.094;7.970;2023-07-31T09:30:47;22.00;1.00
2409;DHT22;8463;48.094;7.970;2023-07-31T09:33:14;21.90;1.00
2409;DHT22;8463;48.094;7.970;2023-07-31T09:35:40;21.80;1.00
2409;DHT22;8463;48.094;7.970;2023-07-31T09:38:14;22.10;1.00
2409;DHT22;8463;48.094;7.970;2023-07-31T09:40:41;22.40;1.00
2409;DHT22;8463;48.094;7.970;2023-07-31T09:43:08;22.60;1.00
2409;DHT22;8463;48.094;7.970;2023-07-31T09:45:42;22.40;1.00
2409;DHT22;8463;48.094;7.970;2023-07-31T09:48:10;22.30;1.00
2409;DHT22;8463;48.094;7.970;2023-07-31T09:50:41;22.40;1.00
2409;DHT22;8463;48.094;7.970;2023-07-31T09:53:08;22.70;1.00
2409;DHT22;8463;48.094;7.970;2023-07-31T09:55:35;23.00;1.00
2409;DHT22;8463;48.094;7.970;2023-07-31T09:58:06;22.60;1.00
2409;DHT22;8463;48.094;7.970;2023-07-31T10:00:35;22.50;1.00
2409;DHT22;8463;48.094;7.970;2023-07-31T10:03:10;22.60;1.00
2409;DHT22;8463;48.094;7.970;2023-07-31T10:05:45;22.60;1.00
2409;DHT22;8463;48.094;7.970;2023-07-31T10:08:14;22.70;1.00
2409;DHT22;8463;48.094;7.970;2023-07-31T10:10:44;22.60;1.00
2409;DHT22;8463;48.094;7.970;2023-07-31T10:13:12;22.20;1.00
2409;DHT22;8463;48.094;7.970;2023-07-31T10:15:38;22.10;1.00
2409;DHT22;8463;48.094;7.970;2023-07-31T10:18:06;22.20;1.00
2409;DHT22;8463;48.094;7.970;2023-07-31T10:20:34;22.50;1.00
2409;DHT22;8463;48.094;7.970;2023-07-31T10:23:01;22.70;1.00
2409;DHT22;8463;48.094;7.970;2023-07-31T10:25:27;22.50;1.00
2409;DHT22;8463;48.094;7.970;2023-07-31T10:27:53;22.50;1.00
2409;DHT22;8463;48.094;7.970;2023-07-31T10:30:24;22.70;1.00
2409;DHT22;8463;48.094;7.970;2023-07-31T10:32:51;22.90;1.00
2409;DHT22;8463;48.094;7.970;2023-07-31T10:35:18;22.60;1.00
2409;DHT22;8463;48.094;7.970;2023-07-31T10:37:46;22.70;1.00
2409;DHT22;8463;48.094;7.970;2023-07-31T10:40:16;23.00;1.00
2409;DHT22;8463;48.094;7.970;2023-07-31T10:42:55;23.40;1.00
2409;DHT22;8463;48.094;7.970;2023-07-31T10:45:39;23.20;1.00
2409;DHT22;8463;48.094;7.970;2023-07-31T10:48:15;23.50;1.00
2409;DHT22;8463;48.094;7.970;2023-07-31T10:50:56;23.70;1.00
2409;DHT22;8463;48.094;7.970;2023-07-31T10:53:26;23.70;1.00
2409;DHT22;8463;48.094;7.970;2023-07-31T10:55:52;23.90;1.00
2409;DHT22;8463;48.094;7.970;2023-07-31T10:58:19;23.40;1.00
2409;DHT22;8463;48.094;7.970;2023-07-31T11:00:55;23.30;1.00
2409;DHT22;8463;48.094;7.970;2023-07-31T11:03:26;23.60;1.00
2409;DHT22;8463;48.094;7.970;2023-07-31T11:13:31;23.20;1.00
2409;DHT22;8463;48.094;7.970;2023-07-31T11:15:57;23.40;1.00
2409;DHT22;8463;48.094;7.970;2023-07-31T11:18:23;23.50;1.00
2409;DHT22;8463;48.094;7.970;2023-07-31T11:20:49;23.60;1.00
2409;DHT22;8463;48.094;7.970;2023-07-31T11:23:16;23.20;1.00
2409;DHT22;8463;48.094;7.970;2023-07-31T11:25:42;23.10;1.00
2409;DHT22;8463;48.094;7.970;2023-07-31T11:28:10;23.30;1.00
2409;DHT22;8463;48.094;7.970;2023-07-31T11:30:36;23.10;1.00
2409;DHT22;8463;48.094;7.970;2023-07-31T11:33:06;23.30;1.00
2409;DHT22;8463;48.094;7.970;2023-07-31T11:35:33;23.70;1.00
2409;DHT22;8463;48.094;7.970;2023-07-31T11:38:00;23.40;1.00
2409;DHT22;8463;48.094;7.970;2023-07-31T11:40:25;23.50;1.00
2409;DHT22;8463;48.094;7.970;2023-07-31T11:43:04;23.60;1.00
2409;DHT22;8463;48.094;7.970;2023-07-31T11:45:32;23.50;1.00
2409;DHT22;8463;48.094;7.970;2023-07-31T11:47:58;23.30;1.00
2409;DHT22;8463;48.094;7.970;2023-07-31T11:50:24;23.00;1.00
2409;DHT22;8463;48.094;7.970;2023-07-31T11:53:00;23.30;1.00
2409;DHT22;8463;48.094;7.970;2023-07-31T11:55:30;23.60;1.00
2409;DHT22;8463;48.094;7.970;2023-07-31T11:57:57;23.50;1.00
2409;DHT22;8463;48.094;7.970;2023-07-31T12:00:25;23.50;1.00
2409;DHT22;8463;48.094;7.970;2023-07-31T12:02:54;23.20;1.00
2409;DHT22;8463;48.094;7.970;2023-07-31T12:05:22;22.90;1.00
2409;DHT22;8463;48.094;7.970;2023-07-31T12:10:43;23.20;1.00
2409;DHT22;8463;48.094;7.970;2023-07-31T12:13:12;23.30;1.00
2409;DHT22;8463;48.094;7.970;2023-07-31T12:15:55;23.50;1.00
2409;DHT22;8463;48.094;7.970;2023-07-31T12:18:22;23.90;1.00
2409;DHT22;8463;48.094;7.970;2023-07-31T12:20:49;24.00;1.00
2409;DHT22;8463;48.094;7.970;2023-07-31T12:23:20;24.20;1.00
2409;DHT22;8463;48.094;7.970;2023-07-31T12:26:07;24.00;1.00
2409;DHT22;8463;48.094;7.970;2023-07-31T12:31:20;24.10;1.00
2409;DHT22;8463;48.094;7.970;2023-07-31T12:33:48;24.70;1.00
2409;DHT22;8463;48.094;7.970;2023-07-31T12:36:22;24.90;1.00
2409;DHT22;8463;48.094;7.970;2023-07-31T12:38:51;24.80;1.00
2409;DHT22;8463;48.094;7.970;2023-07-31T12:41:18;25.00;1.00
2409;DHT22;8463;48.094;7.970;2023-07-31T12:43:45;25.10;1.00
2409;DHT22;8463;48.094;7.970;2023-07-31T12:46:11;25.00;1.00
2409;DHT22;8463;48.094;7.970;2023-07-31T12:48:38;25.10;1.00
2409;DHT22;8463;48.094;7.970;2023-07-31T12:51:04;25.20;1.00
2409;DHT22;8463;48.094;7.970;2023-07-31T12:53:30;25.30;1.00
2409;DHT22;8463;48.094;7.970;2023-07-31T12:55:56;25.50;1.00
2409;DHT22;8463;48.094;7.970;2023-07-31T12:58:22;25.20;1.00
2409;DHT22;8463;48.094;7.970;2023-07-31T13:00:50;25.00;1.00
2409;DHT22;8463;48.094;7.970;2023-07-31T13:03:21;24.90;1.00
2409;DHT22;8463;48.094;7.970;2023-07-31T13:05:50;24.90;1.00
2409;DHT22;8463;48.094;7.970;2023-07-31T13:08:15;25.00;1.00
2409;DHT22;8463;48.094;7.970;2023-07-31T13:10:48;25.00;1.00
2409;DHT22;8463;48.094;7.970;2023-07-31T13:13:14;24.60;1.00
2409;DHT22;8463;48.094;7.970;2023-07-31T13:15:40;24.60;1.00
2409;DHT22;8463;48.094;7.970;2023-07-31T13:18:05;24.70;1.00
2409;DHT22;8463;48.094;7.970;2023-07-31T13:20:31;24.40;1.00
2409;DHT22;8463;48.094;7.970;2023-07-31T13:22:58;24.20;1.00
2409;DHT22;8463;48.094;7.970;2023-07-31T13:25:27;24.10;1.00
2409;DHT22;8463;48.094;7.970;2023-07-31T13:27:52;24.00;1.00
2409;DHT22;8463;48.094;7.970;2023-07-31T13:30:18;24.10;1.00
2409;DHT22;8463;48.094;7.970;2023-07-31T13:32:47;24.20;1.00
2409;DHT22;8463;48.094;7.970;2023-07-31T13:35:12;24.40;1.00
2409;DHT22;8463;48.094;7.970;2023-07-31T13:37:38;24.70;1.00
2409;DHT22;8463;48.094;7.970;2023-07-31T13:40:04;25.00;1.00
2409;DHT22;8463;48.094;7.970;2023-07-31T13:42:32;25.10;1.00
2409;DHT22;8463;48.094;7.970;2023-07-31T13:44:58;25.10;1.00
2409;DHT22;8463;48.094;7.970;2023-07-31T13:47:24;25.20;1.00
2409;DHT22;8463;48.094;7.970;2023-07-31T13:49:49;25.70;1.00
2409;DHT22;8463;48.094;7.970;2023-07-31T13:52:15;25.70;1.00
2409;DHT22;8463;48.094;7.970;2023-07-31T13:54:40;25.80;1.00
2409;DHT22;8463;48.094;7.970;2023-07-31T13:57:08;25.40;1.00
2409;DHT22;8463;48.094;7.970;2023-07-31T13:59:34;25.40;1.00
2409;DHT22;8463;48.094;7.970;2023-07-31T14:02:00;25.40;1.00
2409;DHT22;8463;48.094;7.970;2023-07-31T14:04:30;25.20;1.00
2409;DHT22;8463;48.094;7.970;2023-07-31T14:06:56;25.30;1.00
2409;DHT22;8463;48.094;7.970;2023-07-31T14:09:22;25.60;1.00
2409;DHT22;8463;48.094;7.970;2023-07-31T14:11:48;25.40;1.00
2409;DHT22;8463;48.094;7.970;2023-07-31T14:14:15;25.10;1.00
2409;DHT22;8463;48.094;7.970;2023-07-31T14:16:43;24.90;1.00
2409;DHT22;8463;48.094;7.970;2023-07-31T14:19:08;25.00;1.00
2409;DHT22;8463;48.094;7.970;2023-07-31T14:21:35;25.10;1.00
2409;DHT22;8463;48.094;7.970;2023-07-31T14:24:01;25.30;1.00
2409;DHT22;8463;48.094;7.970;2023-07-31T14:26:26;25.30;1.00
2409;DHT22;8463;48.094;7.970;2023-07-31T14:28:52;25.30;1.00
2409;DHT22;8463;48.094;7.970;2023-07-31T14:31:21;25.10;1.00
2409;DHT22;8463;48.094;7.970;2023-07-31T14:33:46;25.00;1.00
2409;DHT22;8463;48.094;7.970;2023-07-31T14:36:12;25.00;1.00
2409;DHT22;8463;48.094;7.970;2023-07-31T14:38:40;25.00;1.00
2409;DHT22;8463;48.094;7.970;2023-07-31T14:41:05;24.90;1.00
2409;DHT22;8463;48.094;7.970;2023-07-31T14:43:31;25.00;1.00
2409;DHT22;8463;48.094;7.970;2023-07-31T14:45:57;24.90;1.00
2409;DHT22;8463;48.094;7.970;2023-07-31T14:48:26;24.80;1.00
2409;DHT22;8463;48.094;7.970;2023-07-31T14:50:54;24.70;1.00
2409;DHT22;8463;48.094;7.970;2023-07-31T14:53:21;24.70;1.00
2409;DHT22;8463;48.094;7.970;2023-07-31T14:55:46;24.80;1.00
2409;DHT22;8463;48.094;7.970;2023-07-31T14:58:12;24.90;1.00
2409;DHT22;8463;48.094;7.970;2023-07-31T15:00:45;24.90;1.00
2409;DHT22;8463;48.094;7.970;2023-07-31T15:03:11;25.00;1.00
2409;DHT22;8463;48.094;7.970;2023-07-31T15:05:36;25.00;1.00
2409;DHT22;8463;48.094;7.970;2023-07-31T15:08:02;25.00;1.00
2409;DHT22;8463;48.094;7.970;2023-07-31T15:10:27;25.10;1.00
2409;DHT22;8463;48.094;7.970;2023-07-31T15:12:53;25.20;1.00
2409;DHT22;8463;48.094;7.970;2023-07-31T15:15:19;25.30;1.00
2409;DHT22;8463;48.094;7.970;2023-07-31T15:17:53;25.30;1.00
2409;DHT22;8463;48.094;7.970;2023-07-31T15:20:22;25.20;1.00
2409;DHT22;8463;48.094;7.970;2023-07-31T15:22:48;25.20;1.00
2409;DHT22;8463;48.094;7.970;2023-07-31T15:25:14;25.30;1.00
2409;DHT22;8463;48.094;7.970;2023-07-31T15:27:39;25.30;1.00
2409;DHT22;8463;48.094;7.970;2023-07-31T15:30:05;25.20;1.00
2409;DHT22;8463;48.094;7.970;2023-07-31T15:32:34;25.10;1.00
2409;DHT22;8463;48.094;7.970;2023-07-31T15:35:02;25.00;1.00
2409;DHT22;8463;48.094;7.970;2023-07-31T15:37:28;24.90;1.00
2409;DHT22;8463;48.094;7.970;2023-07-31T15:39:53;24.80;1.00
2409;DHT22;8463;48.094;7.970;2023-07-31T15:42:19;24.70;1.00
2409;DHT22;8463;48.094;7.970;2023-07-31T15:44:44;24.70;1.00
2409;DHT22;8463;48.094;7.970;2023-07-31T15:47:10;24.60;1.00
2409;DHT22;8463;48.094;7.970;2023-07-31T15:49:36;24.60;1.00
2409;DHT22;8463;48.094;7.970;2023-07-31T15:52:01;24.70;1.00
2409;DHT22;8463;48.094;7.970;2023-07-31T15:54:27;24.60;1.00
2409;DHT22;8463;48.094;7.970;2023-07-31T15:56:53;24.60;1.00
2409;DHT22;8463;48.094;7.970;2023-07-31T15:59:19;24.70;1.00
2409;DHT22;8463;48.094;7.970;2023-07-31T16:01:44;24.60;1.00
2409;DHT22;8463;48.094;7.970;2023-07-31T16:04:13;24.60;1.00
2409;DHT22;8463;48.094;7.970;2023-07-31T16:06:39;24.50;1.00
2409;DHT22;8463;48.094;7.970;2023-07-31T16:09:04;24.50;1.00
2409;DHT22;8463;48.094;7.970;2023-07-31T16:11:33;24.40;1.00
2409;DHT22;8463;48.094;7.970;2023-07-31T16:14:01;24.40;1.00
2409;DHT22;8463;48.094;7.970;2023-07-31T16:16:27;24.40;1.00
2409;DHT22;8463;48.094;7.970;2023-07-31T16:18:53;24.40;1.00
2409;DHT22;8463;48.094;7.970;2023-07-31T16:21:19;24.30;1.00
2409;DHT22;8463;48.094;7.970;2023-07-31T16:23:44;24.20;1.00
2409;DHT22;8463;48.094;7.970;2023-07-31T16:26:16;24.20;1.00
2409;DHT22;8463;48.094;7.970;2023-07-31T16:28:41;24.10;1.00
2409;DHT22;8463;48.094;7.970;2023-07-31T16:31:07;24.10;1.00
2409;DHT22;8463;48.094;7.970;2023-07-31T16:33:33;24.00;1.00
2409;DHT22;8463;48.094;7.970;2023-07-31T16:36:02;24.00;1.00